sensor_id;sensor_type;location;lat;lon;timestamp;P1;durP1;ratioP1;P2;durP2;ratioP2
23142;SDS011;11740;51.168;4.112;2024-01-27T00:02:25;14.00;;;5.72;;
23142;SDS011;11740;51.168;4.112;2024-01-27T00:04:53;20.67;;;5.43;;
23142;SDS011;11740;51.168;4.112;2024-01-27T00:07:20;16.90;;;6.13;;
23142;SDS011;11740;51.168;4.112;2024-01-27T00:09:48;20.10;;;5.72;;
23142;SDS011;11740;51.168;4.112;2024-01-27T00:12:16;18.92;;;5.95;;
23142;SDS011;11740;51.168;4.112;2024-01-27T00:14:43;15.80;;;6.45;;
23142;SDS011;11740;51.168;4.112;2024-01-27T00:17:10;18.55;;;6.13;;
23142;SDS011;11740;51.168;4.112;2024-01-27T00:19:38;15.43;;;5.80;;
23142;SDS011;11740;51.168;4.112;2024-01-27T00:22:07;19.17;;;5.90;;
23142;SDS011;11740;51.168;4.112;2024-01-27T00:24:34;19.20;;;5.55;;
23142;SDS011;11740;51.168;4.112;2024-01-27T00:27:02;17.55;;;5.25;;
23142;SDS011;11740;51.168;4.112;2024-01-27T00:29:30;20.10;;;5.65;;
23142;SDS011;11740;51.168;4.112;2024-01-27T00:31:57;16.15;;;5.50;;
23142;SDS011;11740;51.168;4.112;2024-01-27T00:34:25;17.52;;;6.28;;
23142;SDS011;11740;51.168;4.112;2024-01-27T00:36:52;14.50;;;6.10;;
23142;SDS011;11740;51.168;4.112;2024-01-27T00:39:19;20.98;;;5.57;;
23142;SDS011;11740;51.168;4.112;2024-01-27T00:41:47;14.40;;;5.82;;
23142;SDS011;11740;51.168;4.112;2024-01-27T00:44:14;17.05;;;5.85;;
23142;SDS011;11740;51.168;4.112;2024-01-27T00:46:42;15.55;;;5.97;;
23142;SDS011;11740;51.168;4.112;2024-01-27T00:49:09;19.23;;;6.20;;
23142;SDS011;11740;51.168;4.112;2024-01-27T00:51:37;17.80;;;5.85;;
23142;SDS011;11740;51.168;4.112;2024-01-27T00:54:04;11.02;;;5.28;;
23142;SDS011;11740;51.168;4.112;2024-01-27T00:56:32;14.48;;;5.53;;
23142;SDS011;11740;51.168;4.112;2024-01-27T00:59:00;21.45;;;6.22;;
23142;SDS011;11740;51.168;4.112;2024-01-27T01:01:27;14.48;;;5.45;;
23142;SDS011;11740;51.168;4.112;2024-01-27T01:03:54;13.07;;;5.68;;
23142;SDS011;11740;51.168;4.112;2024-01-27T01:06:22;15.75;;;5.85;;
23142;SDS011;11740;51.168;4.112;2024-01-27T01:08:50;19.48;;;5.80;;
23142;SDS011;11740;51.168;4.112;2024-01-27T01:11:18;12.55;;;5.30;;
23142;SDS011;11740;51.168;4.112;2024-01-27T01:13:45;17.13;;;5.97;;
23142;SDS011;11740;51.168;4.112;2024-01-27T01:16:12;12.75;;;5.43;;
23142;SDS011;11740;51.168;4.112;2024-01-27T01:18:40;17.23;;;5.55;;
23142;SDS011;11740;51.168;4.112;2024-01-27T01:21:07;15.80;;;5.38;;
23142;SDS011;11740;51.168;4.112;2024-01-27T01:23:35;15.80;;;5.60;;
23142;SDS011;11740;51.168;4.112;2024-01-27T01:26:02;19.20;;;5.63;;
23142;SDS011;11740;51.168;4.112;2024-01-27T01:28:30;16.50;;;6.00;;
23142;SDS011;11740;51.168;4.112;2024-01-27T01:30:58;16.10;;;5.90;;
23142;SDS011;11740;51.168;4.112;2024-01-27T01:33:26;17.80;;;5.15;;
23142;SDS011;11740;51.168;4.112;2024-01-27T01:35:53;18.33;;;5.85;;
23142;SDS011;11740;51.168;4.112;2024-01-27T01:38:21;16.45;;;5.78;;
23142;SDS011;11740;51.168;4.112;2024-01-27T01:40:48;15.15;;;5.95;;
23142;SDS011;11740;51.168;4.112;2024-01-27T01:43:16;17.88;;;5.65;;
23142;SDS011;11740;51.168;4.112;2024-01-27T01:45:43;15.70;;;5.90;;
23142;SDS011;11740;51.168;4.112;2024-01-27T01:48:11;18.25;;;5.70;;
23142;SDS011;11740;51.168;4.112;2024-01-27T01:50:38;18.27;;;5.88;;
23142;SDS011;11740;51.168;4.112;2024-01-27T01:53:05;22.35;;;6.78;;
23142;SDS011;11740;51.168;4.112;2024-01-27T01:55:34;18.13;;;5.47;;
23142;SDS011;11740;51.168;4.112;2024-01-27T01:58:01;16.70;;;6.50;;
23142;SDS011;11740;51.168;4.112;2024-01-27T02:00:29;15.13;;;6.03;;
23142;SDS011;11740;51.168;4.112;2024-01-27T02:02:56;16.48;;;6.07;;
23142;SDS011;11740;51.168;4.112;2024-01-27T02:05:24;17.50;;;5.68;;
23142;SDS011;11740;51.168;4.112;2024-01-27T02:07:52;15.32;;;5.45;;
23142;SDS011;11740;51.168;4.112;2024-01-27T02:10:22;16.45;;;6.53;;
23142;SDS011;11740;51.168;4.112;2024-01-27T02:12:50;21.58;;;6.47;;
23142;SDS011;11740;51.168;4.112;2024-01-27T02:15:17;16.60;;;5.78;;
23142;SDS011;11740;51.168;4.112;2024-01-27T02:17:45;15.20;;;6.00;;
23142;SDS011;11740;51.168;4.112;2024-01-27T02:20:13;15.95;;;5.95;;
23142;SDS011;11740;51.168;4.112;2024-01-27T02:22:40;17.52;;;5.72;;
23142;SDS011;11740;51.168;4.112;2024-01-27T02:25:07;19.73;;;6.03;;
23142;SDS011;11740;51.168;4.112;2024-01-27T02:27:35;15.95;;;5.53;;
23142;SDS011;11740;51.168;4.112;2024-01-27T02:30:02;15.85;;;5.82;;
23142;SDS011;11740;51.168;4.112;2024-01-27T02:32:30;16.45;;;6.25;;
23142;SDS011;11740;51.168;4.112;2024-01-27T02:34:58;17.23;;;6.40;;
23142;SDS011;11740;51.168;4.112;2024-01-27T02:37:25;17.42;;;6.13;;
23142;SDS011;11740;51.168;4.112;2024-01-27T02:39:52;18.50;;;5.80;;
23142;SDS011;11740;51.168;4.112;2024-01-27T02:42:20;15.55;;;5.78;;
23142;SDS011;11740;51.168;4.112;2024-01-27T02:44:47;12.82;;;5.47;;
23142;SDS011;11740;51.168;4.112;2024-01-27T02:47:15;15.20;;;5.57;;
23142;SDS011;11740;51.168;4.112;2024-01-27T02:49:42;15.60;;;5.70;;
23142;SDS011;11740;51.168;4.112;2024-01-27T02:52:10;16.05;;;5.60;;
23142;SDS011;11740;51.168;4.112;2024-01-27T02:54:37;15.80;;;6.10;;
23142;SDS011;11740;51.168;4.112;2024-01-27T02:57:04;17.77;;;6.20;;
23142;SDS011;11740;51.168;4.112;2024-01-27T02:59:32;16.75;;;6.15;;
23142;SDS011;11740;51.168;4.112;2024-01-27T03:02:00;17.98;;;6.15;;
23142;SDS011;11740;51.168;4.112;2024-01-27T03:04:27;18.15;;;6.47;;
23142;SDS011;11740;51.168;4.112;2024-01-27T03:06:55;14.30;;;6.18;;
23142;SDS011;11740;51.168;4.112;2024-01-27T03:09:22;11.85;;;5.65;;
23142;SDS011;11740;51.168;4.112;2024-01-27T03:11:50;13.57;;;5.80;;
23142;SDS011;11740;51.168;4.112;2024-01-27T03:14:17;15.77;;;5.55;;
23142;SDS011;11740;51.168;4.112;2024-01-27T03:16:44;14.50;;;5.78;;
23142;SDS011;11740;51.168;4.112;2024-01-27T03:19:12;18.35;;;7.00;;
23142;SDS011;11740;51.168;4.112;2024-01-27T03:21:39;16.33;;;5.82;;
23142;SDS011;11740;51.168;4.112;2024-01-27T03:24:07;17.00;;;5.63;;
23142;SDS011;11740;51.168;4.112;2024-01-27T03:26:34;19.67;;;6.57;;
23142;SDS011;11740;51.168;4.112;2024-01-27T03:29:02;17.92;;;6.55;;
23142;SDS011;11740;51.168;4.112;2024-01-27T03:31:30;14.57;;;5.47;;
23142;SDS011;11740;51.168;4.112;2024-01-27T03:33:58;16.33;;;5.40;;
23142;SDS011;11740;51.168;4.112;2024-01-27T03:36:26;14.23;;;5.25;;
23142;SDS011;11740;51.168;4.112;2024-01-27T03:38:55;15.80;;;6.03;;
23142;SDS011;11740;51.168;4.112;2024-01-27T03:41:25;16.70;;;5.47;;
23142;SDS011;11740;51.168;4.112;2024-01-27T03:43:53;13.60;;;5.80;;
23142;SDS011;11740;51.168;4.112;2024-01-27T03:46:20;15.77;;;5.93;;
23142;SDS011;11740;51.168;4.112;2024-01-27T03:48:47;14.00;;;5.95;;
23142;SDS011;11740;51.168;4.112;2024-01-27T03:51:16;21.00;;;6.13;;
23142;SDS011;11740;51.168;4.112;2024-01-27T03:53:44;16.08;;;6.30;;
23142;SDS011;11740;51.168;4.112;2024-01-27T03:56:12;17.55;;;6.22;;
23142;SDS011;11740;51.168;4.112;2024-01-27T03:58:39;15.68;;;5.30;;
23142;SDS011;11740;51.168;4.112;2024-01-27T04:01:07;13.60;;;5.90;;
23142;SDS011;11740;51.168;4.112;2024-01-27T04:03:34;13.32;;;5.88;;
23142;SDS011;11740;51.168;4.112;2024-01-27T04:06:02;16.42;;;6.05;;
23142;SDS011;11740;51.168;4.112;2024-01-27T04:08:30;18.52;;;5.97;;
23142;SDS011;11740;51.168;4.112;2024-01-27T04:10:57;14.93;;;6.07;;
23142;SDS011;11740;51.168;4.112;2024-01-27T04:13:25;15.80;;;5.90;;
23142;SDS011;11740;51.168;4.112;2024-01-27T04:15:52;19.65;;;6.38;;
23142;SDS011;11740;51.168;4.112;2024-01-27T04:18:20;18.70;;;5.80;;
23142;SDS011;11740;51.168;4.112;2024-01-27T04:20:48;14.73;;;5.43;;
23142;SDS011;11740;51.168;4.112;2024-01-27T04:23:15;14.55;;;5.30;;
23142;SDS011;11740;51.168;4.112;2024-01-27T04:25:43;13.85;;;5.57;;
23142;SDS011;11740;51.168;4.112;2024-01-27T04:28:11;16.25;;;5.82;;
23142;SDS011;11740;51.168;4.112;2024-01-27T04:30:39;14.52;;;5.65;;
23142;SDS011;11740;51.168;4.112;2024-01-27T04:33:07;16.88;;;5.57;;
23142;SDS011;11740;51.168;4.112;2024-01-27T04:35:34;15.05;;;5.63;;
23142;SDS011;11740;51.168;4.112;2024-01-27T04:38:02;14.13;;;5.93;;
23142;SDS011;11740;51.168;4.112;2024-01-27T04:40:30;15.82;;;5.60;;
23142;SDS011;11740;51.168;4.112;2024-01-27T04:42:57;15.55;;;5.75;;
23142;SDS011;11740;51.168;4.112;2024-01-27T04:45:24;18.02;;;6.50;;
23142;SDS011;11740;51.168;4.112;2024-01-27T04:47:52;14.25;;;5.45;;
23142;SDS011;11740;51.168;4.112;2024-01-27T04:50:20;13.60;;;5.22;;
23142;SDS011;11740;51.168;4.112;2024-01-27T04:52:47;25.55;;;5.88;;
23142;SDS011;11740;51.168;4.112;2024-01-27T04:55:15;13.55;;;5.38;;
23142;SDS011;11740;51.168;4.112;2024-01-27T04:57:42;14.50;;;6.03;;
23142;SDS011;11740;51.168;4.112;2024-01-27T05:00:09;13.55;;;5.55;;
23142;SDS011;11740;51.168;4.112;2024-01-27T05:02:39;16.30;;;5.75;;
23142;SDS011;11740;51.168;4.112;2024-01-27T05:05:08;19.02;;;5.82;;
23142;SDS011;11740;51.168;4.112;2024-01-27T05:07:35;17.55;;;6.00;;
23142;SDS011;11740;51.168;4.112;2024-01-27T05:10:03;20.23;;;6.53;;
23142;SDS011;11740;51.168;4.112;2024-01-27T05:12:31;16.33;;;6.13;;
23142;SDS011;11740;51.168;4.112;2024-01-27T05:14:58;18.42;;;6.80;;
23142;SDS011;11740;51.168;4.112;2024-01-27T05:17:25;19.30;;;6.57;;
23142;SDS011;11740;51.168;4.112;2024-01-27T05:19:53;18.80;;;6.90;;
23142;SDS011;11740;51.168;4.112;2024-01-27T05:22:20;14.80;;;6.13;;
23142;SDS011;11740;51.168;4.112;2024-01-27T05:24:48;12.88;;;6.30;;
23142;SDS011;11740;51.168;4.112;2024-01-27T05:27:15;17.40;;;6.40;;
23142;SDS011;11740;51.168;4.112;2024-01-27T05:29:43;16.77;;;6.07;;
23142;SDS011;11740;51.168;4.112;2024-01-27T05:32:10;16.52;;;6.78;;
23142;SDS011;11740;51.168;4.112;2024-01-27T05:34:38;15.88;;;6.53;;
23142;SDS011;11740;51.168;4.112;2024-01-27T05:37:05;11.32;;;6.35;;
23142;SDS011;11740;51.168;4.112;2024-01-27T05:39:33;16.88;;;7.13;;
23142;SDS011;11740;51.168;4.112;2024-01-27T05:42:01;19.35;;;6.85;;
23142;SDS011;11740;51.168;4.112;2024-01-27T05:44:30;15.95;;;6.90;;
23142;SDS011;11740;51.168;4.112;2024-01-27T05:46:57;17.67;;;6.85;;
23142;SDS011;11740;51.168;4.112;2024-01-27T05:49:25;14.30;;;7.40;;
23142;SDS011;11740;51.168;4.112;2024-01-27T05:51:52;19.38;;;7.35;;
23142;SDS011;11740;51.168;4.112;2024-01-27T05:54:19;20.38;;;7.65;;
23142;SDS011;11740;51.168;4.112;2024-01-27T05:56:47;15.63;;;7.50;;
23142;SDS011;11740;51.168;4.112;2024-01-27T05:59:15;18.55;;;7.72;;
23142;SDS011;11740;51.168;4.112;2024-01-27T06:01:42;17.55;;;7.13;;
23142;SDS011;11740;51.168;4.112;2024-01-27T06:04:10;15.25;;;7.03;;
23142;SDS011;11740;51.168;4.112;2024-01-27T06:06:41;19.90;;;7.05;;
23142;SDS011;11740;51.168;4.112;2024-01-27T06:09:09;13.32;;;7.05;;
23142;SDS011;11740;51.168;4.112;2024-01-27T06:11:37;15.95;;;7.68;;
23142;SDS011;11740;51.168;4.112;2024-01-27T06:14:05;20.55;;;7.88;;
23142;SDS011;11740;51.168;4.112;2024-01-27T06:16:33;17.80;;;7.10;;
23142;SDS011;11740;51.168;4.112;2024-01-27T06:19:01;15.23;;;7.28;;
23142;SDS011;11740;51.168;4.112;2024-01-27T06:21:29;17.83;;;6.97;;
23142;SDS011;11740;51.168;4.112;2024-01-27T06:23:57;20.75;;;7.90;;
23142;SDS011;11740;51.168;4.112;2024-01-27T06:26:24;19.42;;;7.13;;
23142;SDS011;11740;51.168;4.112;2024-01-27T06:28:52;15.65;;;7.28;;
23142;SDS011;11740;51.168;4.112;2024-01-27T06:31:19;16.38;;;6.80;;
23142;SDS011;11740;51.168;4.112;2024-01-27T06:33:47;20.00;;;8.18;;
23142;SDS011;11740;51.168;4.112;2024-01-27T06:36:15;20.48;;;8.10;;
23142;SDS011;11740;51.168;4.112;2024-01-27T06:38:43;19.52;;;7.65;;
23142;SDS011;11740;51.168;4.112;2024-01-27T06:41:10;16.23;;;7.32;;
23142;SDS011;11740;51.168;4.112;2024-01-27T06:43:38;22.20;;;7.85;;
23142;SDS011;11740;51.168;4.112;2024-01-27T06:46:05;21.95;;;7.47;;
23142;SDS011;11740;51.168;4.112;2024-01-27T06:48:32;18.15;;;8.13;;
23142;SDS011;11740;51.168;4.112;2024-01-27T06:51:00;20.05;;;8.35;;
23142;SDS011;11740;51.168;4.112;2024-01-27T06:53:28;18.35;;;7.90;;
23142;SDS011;11740;51.168;4.112;2024-01-27T06:55:55;23.77;;;7.40;;
23142;SDS011;11740;51.168;4.112;2024-01-27T06:58:23;24.35;;;8.48;;
23142;SDS011;11740;51.168;4.112;2024-01-27T07:00:50;16.77;;;8.02;;
23142;SDS011;11740;51.168;4.112;2024-01-27T07:03:18;18.77;;;8.18;;
23142;SDS011;11740;51.168;4.112;2024-01-27T07:05:46;21.48;;;8.07;;
23142;SDS011;11740;51.168;4.112;2024-01-27T07:08:13;22.63;;;8.77;;
23142;SDS011;11740;51.168;4.112;2024-01-27T07:10:41;19.45;;;8.15;;
23142;SDS011;11740;51.168;4.112;2024-01-27T07:13:09;23.60;;;8.55;;
23142;SDS011;11740;51.168;4.112;2024-01-27T07:15:37;15.68;;;7.80;;
23142;SDS011;11740;51.168;4.112;2024-01-27T07:18:05;18.95;;;7.88;;
23142;SDS011;11740;51.168;4.112;2024-01-27T07:20:33;17.40;;;7.75;;
23142;SDS011;11740;51.168;4.112;2024-01-27T07:23:00;15.98;;;7.25;;
23142;SDS011;11740;51.168;4.112;2024-01-27T07:25:27;17.15;;;7.53;;
23142;SDS011;11740;51.168;4.112;2024-01-27T07:27:56;18.10;;;7.85;;
23142;SDS011;11740;51.168;4.112;2024-01-27T07:30:23;16.75;;;7.40;;
23142;SDS011;11740;51.168;4.112;2024-01-27T07:32:51;19.90;;;7.80;;
23142;SDS011;11740;51.168;4.112;2024-01-27T07:35:18;19.88;;;7.60;;
23142;SDS011;11740;51.168;4.112;2024-01-27T07:37:46;20.17;;;7.97;;
23142;SDS011;11740;51.168;4.112;2024-01-27T07:40:13;20.50;;;7.45;;
23142;SDS011;11740;51.168;4.112;2024-01-27T07:42:41;22.20;;;7.65;;
23142;SDS011;11740;51.168;4.112;2024-01-27T07:45:09;22.95;;;8.15;;
23142;SDS011;11740;51.168;4.112;2024-01-27T07:47:37;17.25;;;8.18;;
23142;SDS011;11740;51.168;4.112;2024-01-27T07:50:05;23.92;;;7.97;;
23142;SDS011;11740;51.168;4.112;2024-01-27T07:52:33;18.40;;;9.05;;
23142;SDS011;11740;51.168;4.112;2024-01-27T07:55:00;21.90;;;8.73;;
23142;SDS011;11740;51.168;4.112;2024-01-27T07:57:28;21.65;;;8.98;;
23142;SDS011;11740;51.168;4.112;2024-01-27T07:59:56;19.33;;;8.00;;
23142;SDS011;11740;51.168;4.112;2024-01-27T08:02:23;23.50;;;7.30;;
23142;SDS011;11740;51.168;4.112;2024-01-27T08:04:52;14.98;;;7.57;;
23142;SDS011;11740;51.168;4.112;2024-01-27T08:07:20;17.90;;;7.75;;
23142;SDS011;11740;51.168;4.112;2024-01-27T08:09:47;14.63;;;7.35;;
23142;SDS011;11740;51.168;4.112;2024-01-27T08:12:14;22.65;;;8.07;;
23142;SDS011;11740;51.168;4.112;2024-01-27T08:14:42;19.70;;;7.20;;
23142;SDS011;11740;51.168;4.112;2024-01-27T08:17:10;21.70;;;7.45;;
23142;SDS011;11740;51.168;4.112;2024-01-27T08:19:37;20.65;;;7.55;;
23142;SDS011;11740;51.168;4.112;2024-01-27T08:22:05;19.15;;;7.50;;
23142;SDS011;11740;51.168;4.112;2024-01-27T08:24:32;21.08;;;6.90;;
23142;SDS011;11740;51.168;4.112;2024-01-27T08:27:00;19.02;;;6.95;;
23142;SDS011;11740;51.168;4.112;2024-01-27T08:29:28;20.35;;;7.82;;
23142;SDS011;11740;51.168;4.112;2024-01-27T08:31:55;17.95;;;7.13;;
23142;SDS011;11740;51.168;4.112;2024-01-27T08:34:22;21.45;;;8.52;;
23142;SDS011;11740;51.168;4.112;2024-01-27T08:36:50;20.83;;;7.88;;
23142;SDS011;11740;51.168;4.112;2024-01-27T08:39:17;22.33;;;8.00;;
23142;SDS011;11740;51.168;4.112;2024-01-27T08:41:45;20.77;;;7.35;;
23142;SDS011;11740;51.168;4.112;2024-01-27T08:44:12;20.15;;;6.55;;
23142;SDS011;11740;51.168;4.112;2024-01-27T08:46:40;20.02;;;7.68;;
23142;SDS011;11740;51.168;4.112;2024-01-27T08:49:07;15.68;;;6.90;;
23142;SDS011;11740;51.168;4.112;2024-01-27T08:51:35;25.48;;;7.43;;
23142;SDS011;11740;51.168;4.112;2024-01-27T08:54:02;19.20;;;6.82;;
23142;SDS011;11740;51.168;4.112;2024-01-27T08:56:30;20.42;;;6.93;;
23142;SDS011;11740;51.168;4.112;2024-01-27T08:58:57;20.08;;;7.45;;
23142;SDS011;11740;51.168;4.112;2024-01-27T09:01:24;62.33;;;26.38;;
23142;SDS011;11740;51.168;4.112;2024-01-27T09:03:52;25.70;;;9.55;;
23142;SDS011;11740;51.168;4.112;2024-01-27T09:06:19;21.35;;;6.57;;
23142;SDS011;11740;51.168;4.112;2024-01-27T09:08:47;14.23;;;5.95;;
23142;SDS011;11740;51.168;4.112;2024-01-27T09:11:14;21.45;;;7.10;;
23142;SDS011;11740;51.168;4.112;2024-01-27T09:13:42;15.48;;;6.75;;
23142;SDS011;11740;51.168;4.112;2024-01-27T09:16:11;20.33;;;6.15;;
23142;SDS011;11740;51.168;4.112;2024-01-27T09:18:40;21.25;;;7.15;;
23142;SDS011;11740;51.168;4.112;2024-01-27T09:21:07;17.13;;;6.40;;
23142;SDS011;11740;51.168;4.112;2024-01-27T09:23:35;21.27;;;7.10;;
23142;SDS011;11740;51.168;4.112;2024-01-27T09:26:03;19.67;;;6.85;;
23142;SDS011;11740;51.168;4.112;2024-01-27T09:28:31;17.40;;;7.57;;
23142;SDS011;11740;51.168;4.112;2024-01-27T09:30:59;19.48;;;6.75;;
23142;SDS011;11740;51.168;4.112;2024-01-27T09:33:27;24.27;;;7.57;;
23142;SDS011;11740;51.168;4.112;2024-01-27T09:35:56;17.92;;;7.50;;
23142;SDS011;11740;51.168;4.112;2024-01-27T09:38:23;23.00;;;6.78;;
23142;SDS011;11740;51.168;4.112;2024-01-27T09:40:51;21.17;;;7.05;;
23142;SDS011;11740;51.168;4.112;2024-01-27T09:43:19;17.90;;;6.63;;
23142;SDS011;11740;51.168;4.112;2024-01-27T09:45:46;23.63;;;7.38;;
23142;SDS011;11740;51.168;4.112;2024-01-27T09:48:14;26.42;;;7.57;;
23142;SDS011;11740;51.168;4.112;2024-01-27T09:50:43;20.40;;;6.78;;
23142;SDS011;11740;51.168;4.112;2024-01-27T09:53:11;18.35;;;7.75;;
23142;SDS011;11740;51.168;4.112;2024-01-27T09:55:39;26.42;;;7.60;;
23142;SDS011;11740;51.168;4.112;2024-01-27T09:58:06;23.60;;;7.20;;
23142;SDS011;11740;51.168;4.112;2024-01-27T10:00:35;26.35;;;7.82;;
23142;SDS011;11740;51.168;4.112;2024-01-27T10:03:03;27.30;;;7.45;;
23142;SDS011;11740;51.168;4.112;2024-01-27T10:05:32;22.90;;;7.50;;
23142;SDS011;11740;51.168;4.112;2024-01-27T10:07:59;28.98;;;7.85;;
23142;SDS011;11740;51.168;4.112;2024-01-27T10:10:26;24.10;;;7.18;;
23142;SDS011;11740;51.168;4.112;2024-01-27T10:12:54;18.33;;;7.40;;
23142;SDS011;11740;51.168;4.112;2024-01-27T10:15:25;14.30;;;6.57;;
23142;SDS011;11740;51.168;4.112;2024-01-27T10:18:03;23.42;;;7.30;;
23142;SDS011;11740;51.168;4.112;2024-01-27T10:20:33;27.15;;;7.07;;
23142;SDS011;11740;51.168;4.112;2024-01-27T10:23:09;25.27;;;7.88;;
23142;SDS011;11740;51.168;4.112;2024-01-27T10:25:38;23.67;;;6.90;;
23142;SDS011;11740;51.168;4.112;2024-01-27T10:28:10;25.90;;;8.05;;
23142;SDS011;11740;51.168;4.112;2024-01-27T10:30:37;26.05;;;7.15;;
23142;SDS011;11740;51.168;4.112;2024-01-27T10:33:06;20.95;;;7.35;;
23142;SDS011;11740;51.168;4.112;2024-01-27T10:35:37;21.02;;;6.85;;
23142;SDS011;11740;51.168;4.112;2024-01-27T10:38:04;17.08;;;7.35;;
23142;SDS011;11740;51.168;4.112;2024-01-27T10:40:32;21.40;;;6.95;;
23142;SDS011;11740;51.168;4.112;2024-01-27T10:45:35;22.23;;;6.93;;
23142;SDS011;11740;51.168;4.112;2024-01-27T10:48:08;20.15;;;6.90;;
23142;SDS011;11740;51.168;4.112;2024-01-27T10:50:39;25.40;;;6.90;;
23142;SDS011;11740;51.168;4.112;2024-01-27T10:53:17;21.88;;;7.65;;
23142;SDS011;11740;51.168;4.112;2024-01-27T10:55:50;34.25;;;7.93;;
23142;SDS011;11740;51.168;4.112;2024-01-27T10:58:22;31.73;;;8.00;;
23142;SDS011;11740;51.168;4.112;2024-01-27T11:00:50;26.13;;;7.25;;
23142;SDS011;11740;51.168;4.112;2024-01-27T11:03:20;21.40;;;7.50;;
23142;SDS011;11740;51.168;4.112;2024-01-27T11:05:49;26.33;;;7.88;;
23142;SDS011;11740;51.168;4.112;2024-01-27T11:08:18;24.50;;;8.40;;
23142;SDS011;11740;51.168;4.112;2024-01-27T11:10:45;22.42;;;7.90;;
23142;SDS011;11740;51.168;4.112;2024-01-27T11:13:13;30.75;;;7.55;;
23142;SDS011;11740;51.168;4.112;2024-01-27T11:15:51;21.17;;;7.50;;
23142;SDS011;11740;51.168;4.112;2024-01-27T11:18:19;39.80;;;8.65;;
23142;SDS011;11740;51.168;4.112;2024-01-27T11:20:46;23.65;;;7.57;;
23142;SDS011;11740;51.168;4.112;2024-01-27T11:23:14;27.45;;;7.93;;
23142;SDS011;11740;51.168;4.112;2024-01-27T11:25:42;29.45;;;8.05;;
23142;SDS011;11740;51.168;4.112;2024-01-27T11:28:13;27.60;;;8.05;;
23142;SDS011;11740;51.168;4.112;2024-01-27T11:30:46;31.27;;;8.02;;
23142;SDS011;11740;51.168;4.112;2024-01-27T11:33:14;31.35;;;8.05;;
23142;SDS011;11740;51.168;4.112;2024-01-27T11:35:42;28.85;;;8.18;;
23142;SDS011;11740;51.168;4.112;2024-01-27T11:38:09;28.77;;;8.65;;
23142;SDS011;11740;51.168;4.112;2024-01-27T11:40:46;23.85;;;7.30;;
23142;SDS011;11740;51.168;4.112;2024-01-27T11:43:14;28.65;;;7.97;;
23142;SDS011;11740;51.168;4.112;2024-01-27T11:45:41;31.00;;;8.57;;
23142;SDS011;11740;51.168;4.112;2024-01-27T11:48:09;24.83;;;7.13;;
23142;SDS011;11740;51.168;4.112;2024-01-27T11:50:36;22.45;;;6.95;;
23142;SDS011;11740;51.168;4.112;2024-01-27T11:53:04;30.20;;;8.07;;
23142;SDS011;11740;51.168;4.112;2024-01-27T11:55:36;28.90;;;7.47;;
23142;SDS011;11740;51.168;4.112;2024-01-27T11:58:03;24.20;;;6.82;;
23142;SDS011;11740;51.168;4.112;2024-01-27T12:00:31;30.70;;;8.07;;
23142;SDS011;11740;51.168;4.112;2024-01-27T12:02:59;27.60;;;7.45;;
23142;SDS011;11740;51.168;4.112;2024-01-27T12:05:27;34.35;;;7.15;;
23142;SDS011;11740;51.168;4.112;2024-01-27T12:07:54;32.80;;;7.63;;
23142;SDS011;11740;51.168;4.112;2024-01-27T12:10:22;30.27;;;7.03;;
23142;SDS011;11740;51.168;4.112;2024-01-27T12:12:50;36.03;;;8.00;;
23142;SDS011;11740;51.168;4.112;2024-01-27T12:15:17;30.20;;;7.43;;
23142;SDS011;11740;51.168;4.112;2024-01-27T12:17:50;33.65;;;7.63;;
23142;SDS011;11740;51.168;4.112;2024-01-27T12:20:18;29.33;;;7.57;;
23142;SDS011;11740;51.168;4.112;2024-01-27T12:22:46;31.00;;;7.55;;
23142;SDS011;11740;51.168;4.112;2024-01-27T12:25:14;39.47;;;8.50;;
23142;SDS011;11740;51.168;4.112;2024-01-27T12:27:41;32.17;;;7.80;;
23142;SDS011;11740;51.168;4.112;2024-01-27T12:30:09;41.40;;;8.07;;
23142;SDS011;11740;51.168;4.112;2024-01-27T12:32:37;28.00;;;7.43;;
23142;SDS011;11740;51.168;4.112;2024-01-27T12:35:05;33.30;;;8.05;;
23142;SDS011;11740;51.168;4.112;2024-01-27T12:37:34;31.75;;;8.13;;
23142;SDS011;11740;51.168;4.112;2024-01-27T12:40:02;35.42;;;7.68;;
23142;SDS011;11740;51.168;4.112;2024-01-27T12:42:47;35.90;;;8.23;;
23142;SDS011;11740;51.168;4.112;2024-01-27T12:45:15;38.50;;;12.15;;
23142;SDS011;11740;51.168;4.112;2024-01-27T12:47:43;45.45;;;14.15;;
23142;SDS011;11740;51.168;4.112;2024-01-27T12:50:10;38.67;;;9.25;;
23142;SDS011;11740;51.168;4.112;2024-01-27T12:52:38;37.05;;;8.82;;
23142;SDS011;11740;51.168;4.112;2024-01-27T12:55:05;36.90;;;9.45;;
23142;SDS011;11740;51.168;4.112;2024-01-27T12:57:33;25.00;;;7.47;;
23142;SDS011;11740;51.168;4.112;2024-01-27T13:00:00;32.35;;;6.28;;
23142;SDS011;11740;51.168;4.112;2024-01-27T13:02:30;28.42;;;6.95;;
23142;SDS011;11740;51.168;4.112;2024-01-27T13:04:58;28.38;;;5.70;;
23142;SDS011;11740;51.168;4.112;2024-01-27T13:07:25;28.73;;;6.72;;
23142;SDS011;11740;51.168;4.112;2024-01-27T13:09:52;32.92;;;6.47;;
23142;SDS011;11740;51.168;4.112;2024-01-27T13:12:20;33.28;;;6.93;;
23142;SDS011;11740;51.168;4.112;2024-01-27T13:14:47;23.90;;;6.13;;
23142;SDS011;11740;51.168;4.112;2024-01-27T13:17:15;24.25;;;7.13;;
23142;SDS011;11740;51.168;4.112;2024-01-27T13:19:43;29.45;;;6.57;;
23142;SDS011;11740;51.168;4.112;2024-01-27T13:22:12;27.55;;;6.38;;
23142;SDS011;11740;51.168;4.112;2024-01-27T13:24:39;27.90;;;5.45;;
23142;SDS011;11740;51.168;4.112;2024-01-27T13:27:07;25.83;;;7.63;;
23142;SDS011;11740;51.168;4.112;2024-01-27T13:29:34;23.58;;;6.30;;
23142;SDS011;11740;51.168;4.112;2024-01-27T13:32:02;19.92;;;5.18;;
23142;SDS011;11740;51.168;4.112;2024-01-27T13:34:29;25.02;;;5.00;;
23142;SDS011;11740;51.168;4.112;2024-01-27T13:36:59;35.35;;;6.32;;
23142;SDS011;11740;51.168;4.112;2024-01-27T13:39:29;23.10;;;4.50;;
23142;SDS011;11740;51.168;4.112;2024-01-27T13:41:56;23.20;;;5.28;;
23142;SDS011;11740;51.168;4.112;2024-01-27T13:44:24;21.98;;;4.65;;
23142;SDS011;11740;51.168;4.112;2024-01-27T13:46:51;24.95;;;5.63;;
23142;SDS011;11740;51.168;4.112;2024-01-27T13:49:21;23.42;;;4.65;;
23142;SDS011;11740;51.168;4.112;2024-01-27T13:51:48;21.33;;;5.95;;
23142;SDS011;11740;51.168;4.112;2024-01-27T13:54:16;20.73;;;5.70;;
23142;SDS011;11740;51.168;4.112;2024-01-27T13:56:44;24.27;;;5.53;;
23142;SDS011;11740;51.168;4.112;2024-01-27T13:59:11;16.50;;;5.05;;
23142;SDS011;11740;51.168;4.112;2024-01-27T14:01:38;19.42;;;4.70;;
23142;SDS011;11740;51.168;4.112;2024-01-27T14:04:06;18.33;;;3.80;;
23142;SDS011;11740;51.168;4.112;2024-01-27T14:06:34;14.70;;;3.53;;
23142;SDS011;11740;51.168;4.112;2024-01-27T14:09:02;14.43;;;4.18;;
23142;SDS011;11740;51.168;4.112;2024-01-27T14:11:30;11.75;;;3.30;;
23142;SDS011;11740;51.168;4.112;2024-01-27T14:13:57;15.07;;;3.53;;
23142;SDS011;11740;51.168;4.112;2024-01-27T14:16:24;19.17;;;4.38;;
23142;SDS011;11740;51.168;4.112;2024-01-27T14:18:52;16.30;;;4.80;;
23142;SDS011;11740;51.168;4.112;2024-01-27T14:21:19;22.63;;;4.97;;
23142;SDS011;11740;51.168;4.112;2024-01-27T14:23:47;16.75;;;3.63;;
23142;SDS011;11740;51.168;4.112;2024-01-27T14:26:15;14.57;;;4.35;;
23142;SDS011;11740;51.168;4.112;2024-01-27T14:28:42;18.17;;;4.35;;
23142;SDS011;11740;51.168;4.112;2024-01-27T14:31:11;16.95;;;3.88;;
23142;SDS011;11740;51.168;4.112;2024-01-27T14:33:41;14.75;;;3.63;;
23142;SDS011;11740;51.168;4.112;2024-01-27T14:36:09;9.45;;;3.58;;
23142;SDS011;11740;51.168;4.112;2024-01-27T14:38:38;15.00;;;4.43;;
23142;SDS011;11740;51.168;4.112;2024-01-27T14:41:07;19.15;;;4.38;;